sensor_id;sensor_type;location;lat;lon;timestamp;P1;durP1;ratioP1;P2;durP2;ratioP2
10275;SDS011;5183;51.190;6.820;2023-02-11T00:01:18;44.73;;;30.77;;
10275;SDS011;5183;51.190;6.820;2023-02-11T00:03:47;46.37;;;30.10;;
10275;SDS011;5183;51.190;6.820;2023-02-11T00:06:14;41.93;;;29.27;;
10275;SDS011;5183;51.190;6.820;2023-02-11T00:08:41;40.50;;;29.13;;
10275;SDS011;5183;51.190;6.820;2023-02-11T00:11:09;41.93;;;29.50;;
10275;SDS011;5183;51.190;6.820;2023-02-11T00:13:38;40.67;;;28.97;;
10275;SDS011;5183;51.190;6.820;2023-02-11T00:16:06;41.03;;;28.90;;
10275;SDS011;5183;51.190;6.820;2023-02-11T00:18:34;42.47;;;29.00;;
10275;SDS011;5183;51.190;6.820;2023-02-11T00:21:04;35.93;;;26.97;;
10275;SDS011;5183;51.190;6.820;2023-02-11T00:23:32;41.63;;;29.47;;
10275;SDS011;5183;51.190;6.820;2023-02-11T00:25:59;42.60;;;27.57;;
10275;SDS011;5183;51.190;6.820;2023-02-11T00:28:26;39.40;;;28.30;;
10275;SDS011;5183;51.190;6.820;2023-02-11T00:30:53;41.97;;;28.50;;
10275;SDS011;5183;51.190;6.820;2023-02-11T00:33:21;37.37;;;27.80;;
10275;SDS011;5183;51.190;6.820;2023-02-11T00:35:49;37.30;;;27.57;;
10275;SDS011;5183;51.190;6.820;2023-02-11T00:38:16;40.47;;;26.77;;
10275;SDS011;5183;51.190;6.820;2023-02-11T00:40:42;35.13;;;26.00;;
10275;SDS011;5183;51.190;6.820;2023-02-11T00:43:09;37.80;;;26.80;;
10275;SDS011;5183;51.190;6.820;2023-02-11T00:45:36;38.37;;;27.47;;
10275;SDS011;5183;51.190;6.820;2023-02-11T00:48:03;38.00;;;27.03;;
10275;SDS011;5183;51.190;6.820;2023-02-11T00:50:31;38.70;;;27.30;;
10275;SDS011;5183;51.190;6.820;2023-02-11T00:52:58;37.60;;;28.13;;
10275;SDS011;5183;51.190;6.820;2023-02-11T00:55:25;37.13;;;27.30;;
10275;SDS011;5183;51.190;6.820;2023-02-11T00:57:51;36.73;;;27.37;;
10275;SDS011;5183;51.190;6.820;2023-02-11T01:00:18;39.87;;;27.70;;
10275;SDS011;5183;51.190;6.820;2023-02-11T01:02:46;37.37;;;27.33;;
10275;SDS011;5183;51.190;6.820;2023-02-11T01:05:13;36.97;;;27.27;;
10275;SDS011;5183;51.190;6.820;2023-02-11T01:07:41;40.53;;;28.50;;
10275;SDS011;5183;51.190;6.820;2023-02-11T01:10:08;39.37;;;27.93;;
10275;SDS011;5183;51.190;6.820;2023-02-11T01:12:35;41.00;;;28.03;;
10275;SDS011;5183;51.190;6.820;2023-02-11T01:15:02;40.73;;;28.30;;
10275;SDS011;5183;51.190;6.820;2023-02-11T01:17:30;40.07;;;28.17;;
10275;SDS011;5183;51.190;6.820;2023-02-11T01:19:56;37.47;;;27.50;;
10275;SDS011;5183;51.190;6.820;2023-02-11T01:22:23;36.60;;;26.30;;
10275;SDS011;5183;51.190;6.820;2023-02-11T01:24:51;35.53;;;27.13;;
10275;SDS011;5183;51.190;6.820;2023-02-11T01:27:18;41.23;;;28.23;;
10275;SDS011;5183;51.190;6.820;2023-02-11T01:29:45;41.63;;;28.33;;
10275;SDS011;5183;51.190;6.820;2023-02-11T01:32:12;41.77;;;28.97;;
10275;SDS011;5183;51.190;6.820;2023-02-11T01:34:39;38.57;;;28.23;;
10275;SDS011;5183;51.190;6.820;2023-02-11T01:37:05;42.90;;;29.47;;
10275;SDS011;5183;51.190;6.820;2023-02-11T01:39:33;39.07;;;27.40;;
10275;SDS011;5183;51.190;6.820;2023-02-11T01:42:02;43.30;;;29.90;;
10275;SDS011;5183;51.190;6.820;2023-02-11T01:44:30;40.10;;;29.03;;
10275;SDS011;5183;51.190;6.820;2023-02-11T01:46:58;41.33;;;28.93;;
10275;SDS011;5183;51.190;6.820;2023-02-11T01:49:26;40.43;;;29.03;;
10275;SDS011;5183;51.190;6.820;2023-02-11T01:51:56;42.47;;;28.73;;
10275;SDS011;5183;51.190;6.820;2023-02-11T01:54:25;42.17;;;29.10;;
10275;SDS011;5183;51.190;6.820;2023-02-11T01:57:14;40.03;;;28.13;;
10275;SDS011;5183;51.190;6.820;2023-02-11T01:59:57;41.50;;;29.37;;
10275;SDS011;5183;51.190;6.820;2023-02-11T02:02:30;40.30;;;28.17;;
10275;SDS011;5183;51.190;6.820;2023-02-11T02:05:02;40.50;;;27.80;;
10275;SDS011;5183;51.190;6.820;2023-02-11T02:07:33;38.03;;;28.80;;
10275;SDS011;5183;51.190;6.820;2023-02-11T02:10:08;41.67;;;28.97;;
10275;SDS011;5183;51.190;6.820;2023-02-11T02:12:40;37.63;;;27.90;;
10275;SDS011;5183;51.190;6.820;2023-02-11T02:15:17;41.53;;;29.23;;
10275;SDS011;5183;51.190;6.820;2023-02-11T02:17:48;42.67;;;29.43;;
10275;SDS011;5183;51.190;6.820;2023-02-11T02:20:36;44.40;;;29.47;;
10275;SDS011;5183;51.190;6.820;2023-02-11T02:23:27;37.70;;;28.53;;
10275;SDS011;5183;51.190;6.820;2023-02-11T02:26:26;41.00;;;28.63;;
10275;SDS011;5183;51.190;6.820;2023-02-11T02:29:21;41.07;;;28.63;;
10275;SDS011;5183;51.190;6.820;2023-02-11T02:35:03;39.47;;;27.20;;
10275;SDS011;5183;51.190;6.820;2023-02-11T02:37:41;40.70;;;29.13;;
10275;SDS011;5183;51.190;6.820;2023-02-11T02:40:17;40.10;;;28.20;;
10275;SDS011;5183;51.190;6.820;2023-02-11T02:42:48;41.00;;;28.40;;
10275;SDS011;5183;51.190;6.820;2023-02-11T02:45:17;42.40;;;29.27;;
10275;SDS011;5183;51.190;6.820;2023-02-11T02:47:45;39.57;;;28.27;;
10275;SDS011;5183;51.190;6.820;2023-02-11T02:50:13;43.33;;;29.40;;
10275;SDS011;5183;51.190;6.820;2023-02-11T02:52:45;40.07;;;27.47;;
10275;SDS011;5183;51.190;6.820;2023-02-11T02:55:24;39.97;;;28.17;;
10275;SDS011;5183;51.190;6.820;2023-02-11T03:01:06;39.20;;;26.97;;
10275;SDS011;5183;51.190;6.820;2023-02-11T03:03:39;40.87;;;28.00;;
10275;SDS011;5183;51.190;6.820;2023-02-11T03:06:16;41.77;;;28.83;;
10275;SDS011;5183;51.190;6.820;2023-02-11T03:08:50;42.33;;;26.97;;
10275;SDS011;5183;51.190;6.820;2023-02-11T03:11:21;37.77;;;27.10;;
10275;SDS011;5183;51.190;6.820;2023-02-11T03:13:49;37.73;;;26.57;;
10275;SDS011;5183;51.190;6.820;2023-02-11T03:16:17;38.33;;;27.40;;
10275;SDS011;5183;51.190;6.820;2023-02-11T03:18:48;39.30;;;27.30;;
10275;SDS011;5183;51.190;6.820;2023-02-11T03:21:19;37.50;;;26.30;;
10275;SDS011;5183;51.190;6.820;2023-02-11T03:23:48;40.40;;;26.80;;
10275;SDS011;5183;51.190;6.820;2023-02-11T03:26:21;36.07;;;26.20;;
10275;SDS011;5183;51.190;6.820;2023-02-11T03:28:53;36.37;;;25.90;;
10275;SDS011;5183;51.190;6.820;2023-02-11T03:31:26;39.20;;;26.00;;
10275;SDS011;5183;51.190;6.820;2023-02-11T03:33:56;37.47;;;24.83;;
10275;SDS011;5183;51.190;6.820;2023-02-11T03:36:31;37.07;;;25.33;;
10275;SDS011;5183;51.190;6.820;2023-02-11T03:39:00;36.47;;;25.63;;
10275;SDS011;5183;51.190;6.820;2023-02-11T03:41:30;41.37;;;26.53;;
10275;SDS011;5183;51.190;6.820;2023-02-11T03:43:59;40.80;;;25.57;;
10275;SDS011;5183;51.190;6.820;2023-02-11T03:46:27;40.23;;;26.43;;
10275;SDS011;5183;51.190;6.820;2023-02-11T03:48:58;36.87;;;25.23;;
10275;SDS011;5183;51.190;6.820;2023-02-11T03:51:29;40.77;;;25.77;;
10275;SDS011;5183;51.190;6.820;2023-02-11T03:53:58;36.70;;;24.47;;
10275;SDS011;5183;51.190;6.820;2023-02-11T03:56:29;34.83;;;24.30;;
10275;SDS011;5183;51.190;6.820;2023-02-11T03:59:00;39.07;;;24.37;;
10275;SDS011;5183;51.190;6.820;2023-02-11T04:01:28;33.23;;;23.63;;
10275;SDS011;5183;51.190;6.820;2023-02-11T04:03:54;35.67;;;24.70;;
10275;SDS011;5183;51.190;6.820;2023-02-11T04:06:21;38.77;;;24.33;;
10275;SDS011;5183;51.190;6.820;2023-02-11T04:08:49;36.30;;;23.87;;
10275;SDS011;5183;51.190;6.820;2023-02-11T04:11:16;34.83;;;23.93;;
10275;SDS011;5183;51.190;6.820;2023-02-11T04:13:43;36.33;;;24.03;;
10275;SDS011;5183;51.190;6.820;2023-02-11T04:16:10;34.00;;;23.30;;
10275;SDS011;5183;51.190;6.820;2023-02-11T04:18:36;35.13;;;24.70;;
10275;SDS011;5183;51.190;6.820;2023-02-11T04:21:03;35.33;;;23.03;;
10275;SDS011;5183;51.190;6.820;2023-02-11T04:23:31;34.03;;;22.33;;
10275;SDS011;5183;51.190;6.820;2023-02-11T04:25:59;35.50;;;24.13;;
10275;SDS011;5183;51.190;6.820;2023-02-11T04:28:26;39.00;;;24.33;;
10275;SDS011;5183;51.190;6.820;2023-02-11T04:30:53;35.13;;;24.00;;
10275;SDS011;5183;51.190;6.820;2023-02-11T04:33:20;38.20;;;23.37;;
10275;SDS011;5183;51.190;6.820;2023-02-11T04:35:47;31.40;;;22.97;;
10275;SDS011;5183;51.190;6.820;2023-02-11T04:38:14;37.93;;;23.33;;
10275;SDS011;5183;51.190;6.820;2023-02-11T04:40:41;39.10;;;24.80;;
10275;SDS011;5183;51.190;6.820;2023-02-11T04:43:09;32.80;;;23.17;;
10275;SDS011;5183;51.190;6.820;2023-02-11T04:45:36;39.73;;;23.77;;
10275;SDS011;5183;51.190;6.820;2023-02-11T04:48:03;37.00;;;22.47;;
10275;SDS011;5183;51.190;6.820;2023-02-11T04:50:30;39.10;;;24.37;;
10275;SDS011;5183;51.190;6.820;2023-02-11T04:52:57;40.70;;;24.23;;
10275;SDS011;5183;51.190;6.820;2023-02-11T04:55:24;34.93;;;22.90;;
10275;SDS011;5183;51.190;6.820;2023-02-11T04:57:50;36.37;;;24.30;;
10275;SDS011;5183;51.190;6.820;2023-02-11T05:00:19;35.87;;;24.50;;
10275;SDS011;5183;51.190;6.820;2023-02-11T05:02:46;36.67;;;24.37;;
10275;SDS011;5183;51.190;6.820;2023-02-11T05:05:12;42.00;;;25.40;;
10275;SDS011;5183;51.190;6.820;2023-02-11T05:07:39;47.80;;;26.40;;
10275;SDS011;5183;51.190;6.820;2023-02-11T05:10:06;36.70;;;24.20;;
10275;SDS011;5183;51.190;6.820;2023-02-11T05:12:33;40.27;;;24.50;;
10275;SDS011;5183;51.190;6.820;2023-02-11T05:15:00;41.00;;;24.80;;
10275;SDS011;5183;51.190;6.820;2023-02-11T05:17:28;40.30;;;25.23;;
10275;SDS011;5183;51.190;6.820;2023-02-11T05:19:55;39.20;;;24.33;;
10275;SDS011;5183;51.190;6.820;2023-02-11T05:22:22;42.20;;;25.60;;
10275;SDS011;5183;51.190;6.820;2023-02-11T05:24:49;42.63;;;24.87;;
10275;SDS011;5183;51.190;6.820;2023-02-11T05:27:16;41.37;;;25.43;;
10275;SDS011;5183;51.190;6.820;2023-02-11T05:29:42;38.20;;;26.37;;
10275;SDS011;5183;51.190;6.820;2023-02-11T05:32:10;42.30;;;26.47;;
10275;SDS011;5183;51.190;6.820;2023-02-11T05:34:38;46.00;;;26.00;;
10275;SDS011;5183;51.190;6.820;2023-02-11T05:37:05;40.83;;;25.80;;
10275;SDS011;5183;51.190;6.820;2023-02-11T05:39:32;43.00;;;26.40;;
10275;SDS011;5183;51.190;6.820;2023-02-11T05:41:58;43.80;;;26.27;;
10275;SDS011;5183;51.190;6.820;2023-02-11T05:44:25;47.17;;;26.63;;
10275;SDS011;5183;51.190;6.820;2023-02-11T05:46:52;42.33;;;26.37;;
10275;SDS011;5183;51.190;6.820;2023-02-11T05:49:19;42.20;;;26.90;;
10275;SDS011;5183;51.190;6.820;2023-02-11T05:51:47;44.03;;;25.93;;
10275;SDS011;5183;51.190;6.820;2023-02-11T05:54:14;42.93;;;27.73;;
10275;SDS011;5183;51.190;6.820;2023-02-11T05:56:41;46.67;;;28.73;;
10275;SDS011;5183;51.190;6.820;2023-02-11T05:59:08;50.07;;;29.80;;
10275;SDS011;5183;51.190;6.820;2023-02-11T06:01:38;47.23;;;29.20;;
10275;SDS011;5183;51.190;6.820;2023-02-11T06:04:04;47.53;;;28.93;;
10275;SDS011;5183;51.190;6.820;2023-02-11T06:06:31;50.73;;;31.27;;
10275;SDS011;5183;51.190;6.820;2023-02-11T06:08:59;49.37;;;31.60;;
10275;SDS011;5183;51.190;6.820;2023-02-11T06:11:26;49.93;;;31.17;;
10275;SDS011;5183;51.190;6.820;2023-02-11T06:13:53;54.37;;;31.47;;
10275;SDS011;5183;51.190;6.820;2023-02-11T06:16:20;59.13;;;32.90;;
10275;SDS011;5183;51.190;6.820;2023-02-11T06:18:47;57.67;;;32.30;;
10275;SDS011;5183;51.190;6.820;2023-02-11T06:21:13;57.23;;;33.87;;
10275;SDS011;5183;51.190;6.820;2023-02-11T06:23:40;53.57;;;32.63;;
10275;SDS011;5183;51.190;6.820;2023-02-11T06:26:14;60.47;;;33.67;;
10275;SDS011;5183;51.190;6.820;2023-02-11T06:28:43;59.57;;;35.30;;
10275;SDS011;5183;51.190;6.820;2023-02-11T06:31:10;60.93;;;35.83;;
10275;SDS011;5183;51.190;6.820;2023-02-11T06:33:37;55.07;;;33.83;;
10275;SDS011;5183;51.190;6.820;2023-02-11T06:36:08;57.43;;;34.43;;
10275;SDS011;5183;51.190;6.820;2023-02-11T06:38:39;56.57;;;34.80;;
10275;SDS011;5183;51.190;6.820;2023-02-11T06:41:09;66.77;;;35.90;;
10275;SDS011;5183;51.190;6.820;2023-02-11T06:43:36;61.77;;;34.70;;
10275;SDS011;5183;51.190;6.820;2023-02-11T06:46:03;60.40;;;35.43;;
10275;SDS011;5183;51.190;6.820;2023-02-11T06:48:30;70.40;;;36.17;;
10275;SDS011;5183;51.190;6.820;2023-02-11T06:51:00;62.50;;;35.63;;
10275;SDS011;5183;51.190;6.820;2023-02-11T06:53:27;64.97;;;36.27;;
10275;SDS011;5183;51.190;6.820;2023-02-11T06:55:54;59.17;;;35.37;;
10275;SDS011;5183;51.190;6.820;2023-02-11T06:58:23;68.47;;;38.30;;
10275;SDS011;5183;51.190;6.820;2023-02-11T07:00:49;63.30;;;36.30;;
10275;SDS011;5183;51.190;6.820;2023-02-11T07:03:16;65.47;;;35.93;;
10275;SDS011;5183;51.190;6.820;2023-02-11T07:05:43;61.83;;;35.87;;
10275;SDS011;5183;51.190;6.820;2023-02-11T07:08:11;64.70;;;36.50;;
10275;SDS011;5183;51.190;6.820;2023-02-11T07:10:38;61.60;;;35.50;;
10275;SDS011;5183;51.190;6.820;2023-02-11T07:13:05;64.73;;;35.43;;
10275;SDS011;5183;51.190;6.820;2023-02-11T07:15:33;65.20;;;35.60;;
10275;SDS011;5183;51.190;6.820;2023-02-11T07:18:01;59.30;;;35.20;;
10275;SDS011;5183;51.190;6.820;2023-02-11T07:20:28;64.83;;;35.50;;
10275;SDS011;5183;51.190;6.820;2023-02-11T07:22:55;65.83;;;36.60;;
10275;SDS011;5183;51.190;6.820;2023-02-11T07:25:24;59.07;;;35.50;;
10275;SDS011;5183;51.190;6.820;2023-02-11T07:27:51;63.50;;;34.33;;
10275;SDS011;5183;51.190;6.820;2023-02-11T07:30:18;70.23;;;35.00;;
10275;SDS011;5183;51.190;6.820;2023-02-11T07:32:46;63.23;;;35.27;;
10275;SDS011;5183;51.190;6.820;2023-02-11T07:35:13;64.67;;;35.40;;
10275;SDS011;5183;51.190;6.820;2023-02-11T07:37:40;67.30;;;34.43;;
10275;SDS011;5183;51.190;6.820;2023-02-11T07:40:07;63.13;;;34.67;;
10275;SDS011;5183;51.190;6.820;2023-02-11T07:42:34;71.17;;;36.27;;
10275;SDS011;5183;51.190;6.820;2023-02-11T07:45:01;62.70;;;36.50;;
10275;SDS011;5183;51.190;6.820;2023-02-11T07:47:28;63.67;;;33.73;;
10275;SDS011;5183;51.190;6.820;2023-02-11T07:49:56;61.93;;;35.33;;
10275;SDS011;5183;51.190;6.820;2023-02-11T07:52:23;63.77;;;34.47;;
10275;SDS011;5183;51.190;6.820;2023-02-11T07:54:50;67.30;;;34.17;;
10275;SDS011;5183;51.190;6.820;2023-02-11T07:57:16;61.13;;;33.67;;
10275;SDS011;5183;51.190;6.820;2023-02-11T07:59:43;67.77;;;35.17;;
10275;SDS011;5183;51.190;6.820;2023-02-11T08:02:10;71.27;;;35.30;;
10275;SDS011;5183;51.190;6.820;2023-02-11T08:04:37;66.30;;;34.90;;
10275;SDS011;5183;51.190;6.820;2023-02-11T08:07:05;67.50;;;36.03;;
10275;SDS011;5183;51.190;6.820;2023-02-11T08:09:32;69.20;;;35.83;;
10275;SDS011;5183;51.190;6.820;2023-02-11T08:11:59;65.07;;;34.83;;
10275;SDS011;5183;51.190;6.820;2023-02-11T08:14:26;69.90;;;34.80;;
10275;SDS011;5183;51.190;6.820;2023-02-11T08:16:53;65.67;;;35.23;;
10275;SDS011;5183;51.190;6.820;2023-02-11T08:19:20;76.67;;;36.63;;
10275;SDS011;5183;51.190;6.820;2023-02-11T08:21:47;79.37;;;36.33;;
10275;SDS011;5183;51.190;6.820;2023-02-11T08:24:15;77.90;;;39.88;;
10275;SDS011;5183;51.190;6.820;2023-02-11T08:26:42;70.67;;;37.30;;
10275;SDS011;5183;51.190;6.820;2023-02-11T08:29:10;73.57;;;36.27;;
10275;SDS011;5183;51.190;6.820;2023-02-11T08:31:39;75.93;;;37.00;;
10275;SDS011;5183;51.190;6.820;2023-02-11T08:34:07;70.10;;;35.57;;
10275;SDS011;5183;51.190;6.820;2023-02-11T08:36:36;77.03;;;36.87;;
10275;SDS011;5183;51.190;6.820;2023-02-11T08:39:04;73.57;;;37.53;;
10275;SDS011;5183;51.190;6.820;2023-02-11T08:41:34;69.97;;;36.40;;
10275;SDS011;5183;51.190;6.820;2023-02-11T08:44:01;77.27;;;38.10;;
10275;SDS011;5183;51.190;6.820;2023-02-11T08:46:28;73.03;;;38.03;;
10275;SDS011;5183;51.190;6.820;2023-02-11T08:48:55;68.87;;;37.03;;
10275;SDS011;5183;51.190;6.820;2023-02-11T08:51:23;80.33;;;38.40;;
10275;SDS011;5183;51.190;6.820;2023-02-11T08:53:52;73.63;;;36.80;;
10275;SDS011;5183;51.190;6.820;2023-02-11T08:56:20;73.97;;;38.80;;
10275;SDS011;5183;51.190;6.820;2023-02-11T08:58:50;77.47;;;37.97;;
10275;SDS011;5183;51.190;6.820;2023-02-11T09:01:18;78.03;;;38.33;;
10275;SDS011;5183;51.190;6.820;2023-02-11T09:03:46;79.37;;;38.97;;
10275;SDS011;5183;51.190;6.820;2023-02-11T09:06:13;82.10;;;39.33;;
10275;SDS011;5183;51.190;6.820;2023-02-11T09:08:42;77.93;;;38.30;;
10275;SDS011;5183;51.190;6.820;2023-02-11T09:11:11;79.23;;;39.20;;
10275;SDS011;5183;51.190;6.820;2023-02-11T09:13:39;84.37;;;40.03;;
10275;SDS011;5183;51.190;6.820;2023-02-11T09:16:07;81.80;;;39.77;;
10275;SDS011;5183;51.190;6.820;2023-02-11T09:18:42;90.30;;;40.47;;
10275;SDS011;5183;51.190;6.820;2023-02-11T09:21:10;75.57;;;39.97;;
10275;SDS011;5183;51.190;6.820;2023-02-11T09:23:37;79.40;;;40.07;;
10275;SDS011;5183;51.190;6.820;2023-02-11T09:26:08;89.07;;;41.20;;
10275;SDS011;5183;51.190;6.820;2023-02-11T09:28:37;78.87;;;39.90;;
10275;SDS011;5183;51.190;6.820;2023-02-11T09:31:04;85.83;;;40.80;;
10275;SDS011;5183;51.190;6.820;2023-02-11T09:33:33;82.13;;;40.50;;
10275;SDS011;5183;51.190;6.820;2023-02-11T09:36:00;76.47;;;38.70;;
10275;SDS011;5183;51.190;6.820;2023-02-11T09:38:27;78.83;;;39.43;;
10275;SDS011;5183;51.190;6.820;2023-02-11T09:40:54;82.33;;;40.93;;
10275;SDS011;5183;51.190;6.820;2023-02-11T09:43:21;82.73;;;40.13;;
10275;SDS011;5183;51.190;6.820;2023-02-11T09:45:52;75.17;;;38.93;;
10275;SDS011;5183;51.190;6.820;2023-02-11T09:48:20;83.50;;;39.67;;
10275;SDS011;5183;51.190;6.820;2023-02-11T09:50:50;77.83;;;39.30;;
10275;SDS011;5183;51.190;6.820;2023-02-11T09:53:21;81.00;;;39.37;;
10275;SDS011;5183;51.190;6.820;2023-02-11T09:55:50;78.20;;;38.40;;
10275;SDS011;5183;51.190;6.820;2023-02-11T09:58:21;81.33;;;39.33;;
10275;SDS011;5183;51.190;6.820;2023-02-11T10:00:52;79.70;;;39.73;;
10275;SDS011;5183;51.190;6.820;2023-02-11T10:06:22;79.17;;;39.50;;
10275;SDS011;5183;51.190;6.820;2023-02-11T10:09:02;72.70;;;38.03;;
10275;SDS011;5183;51.190;6.820;2023-02-11T10:11:46;83.17;;;39.60;;
10275;SDS011;5183;51.190;6.820;2023-02-11T10:14:24;79.90;;;39.57;;
10275;SDS011;5183;51.190;6.820;2023-02-11T10:17:09;72.40;;;39.03;;
10275;SDS011;5183;51.190;6.820;2023-02-11T10:19:45;84.00;;;38.93;;
10275;SDS011;5183;51.190;6.820;2023-02-11T10:22:23;84.80;;;41.53;;
10275;SDS011;5183;51.190;6.820;2023-02-11T10:24:54;77.33;;;40.07;;
10275;SDS011;5183;51.190;6.820;2023-02-11T10:27:25;82.33;;;41.90;;
10275;SDS011;5183;51.190;6.820;2023-02-11T10:29:56;78.17;;;41.67;;
10275;SDS011;5183;51.190;6.820;2023-02-11T10:32:28;84.83;;;42.97;;
10275;SDS011;5183;51.190;6.820;2023-02-11T10:35:01;72.90;;;39.37;;
10275;SDS011;5183;51.190;6.820;2023-02-11T10:37:31;78.87;;;40.47;;
10275;SDS011;5183;51.190;6.820;2023-02-11T10:39:57;88.70;;;41.50;;
10275;SDS011;5183;51.190;6.820;2023-02-11T10:42:24;86.50;;;41.40;;
10275;SDS011;5183;51.190;6.820;2023-02-11T10:44:56;89.33;;;42.10;;
10275;SDS011;5183;51.190;6.820;2023-02-11T10:47:26;83.53;;;42.07;;
10275;SDS011;5183;51.190;6.820;2023-02-11T10:49:56;78.57;;;40.73;;
10275;SDS011;5183;51.190;6.820;2023-02-11T10:52:27;78.03;;;40.97;;
10275;SDS011;5183;51.190;6.820;2023-02-11T10:54:58;85.03;;;40.93;;
10275;SDS011;5183;51.190;6.820;2023-02-11T10:57:27;88.23;;;41.47;;
10275;SDS011;5183;51.190;6.820;2023-02-11T10:59:57;82.43;;;40.93;;
10275;SDS011;5183;51.190;6.820;2023-02-11T11:02:28;83.70;;;40.67;;
10275;SDS011;5183;51.190;6.820;2023-02-11T11:04:58;84.80;;;40.93;;
10275;SDS011;5183;51.190;6.820;2023-02-11T11:07:28;85.47;;;41.20;;
10275;SDS011;5183;51.190;6.820;2023-02-11T11:09:59;87.07;;;40.97;;
10275;SDS011;5183;51.190;6.820;2023-02-11T11:12:29;83.03;;;40.00;;
10275;SDS011;5183;51.190;6.820;2023-02-11T11:15:02;83.07;;;40.77;;
10275;SDS011;5183;51.190;6.820;2023-02-11T11:17:42;86.30;;;41.95;;
10275;SDS011;5183;51.190;6.820;2023-02-11T11:20:14;77.80;;;39.97;;
10275;SDS011;5183;51.190;6.820;2023-02-11T11:22:44;84.72;;;45.75;;
10275;SDS011;5183;51.190;6.820;2023-02-11T11:25:24;85.97;;;41.23;;
10275;SDS011;5183;51.190;6.820;2023-02-11T11:27:52;79.70;;;39.73;;
10275;SDS011;5183;51.190;6.820;2023-02-11T11:30:22;77.27;;;39.13;;
10275;SDS011;5183;51.190;6.820;2023-02-11T11:32:55;84.20;;;42.10;;
10275;SDS011;5183;51.190;6.820;2023-02-11T11:35:24;81.93;;;41.67;;
10275;SDS011;5183;51.190;6.820;2023-02-11T11:37:53;89.73;;;40.37;;
10275;SDS011;5183;51.190;6.820;2023-02-11T11:40:24;73.87;;;39.37;;
10275;SDS011;5183;51.190;6.820;2023-02-11T11:43:05;74.13;;;40.23;;
10275;SDS011;5183;51.190;6.820;2023-02-11T11:45:51;75.47;;;40.27;;
10275;SDS011;5183;51.190;6.820;2023-02-11T11:48:20;77.73;;;39.97;;
10275;SDS011;5183;51.190;6.820;2023-02-11T11:50:51;79.87;;;39.57;;
10275;SDS011;5183;51.190;6.820;2023-02-11T11:53:21;75.50;;;40.40;;
10275;SDS011;5183;51.190;6.820;2023-02-11T11:55:57;83.07;;;40.57;;
10275;SDS011;5183;51.190;6.820;2023-02-11T11:58:28;84.80;;;40.77;;
10275;SDS011;5183;51.190;6.820;2023-02-11T12:00:57;78.33;;;39.00;;
10275;SDS011;5183;51.190;6.820;2023-02-11T12:06:42;72.63;;;37.83;;
10275;SDS011;5183;51.190;6.820;2023-02-11T12:09:24;75.27;;;38.30;;
10275;SDS011;5183;51.190;6.820;2023-02-11T12:12:04;76.07;;;39.30;;
10275;SDS011;5183;51.190;6.820;2023-02-11T12:14:41;72.47;;;38.73;;
10275;SDS011;5183;51.190;6.820;2023-02-11T12:17:18;79.70;;;40.50;;
10275;SDS011;5183;51.190;6.820;2023-02-11T12:20:11;76.77;;;39.03;;
10275;SDS011;5183;51.190;6.820;2023-02-11T12:22:50;71.37;;;38.03;;
10275;SDS011;5183;51.190;6.820;2023-02-11T12:25:26;78.30;;;40.33;;
10275;SDS011;5183;51.190;6.820;2023-02-11T12:28:00;74.80;;;38.37;;
10275;SDS011;5183;51.190;6.820;2023-02-11T12:30:48;69.80;;;36.70;;
10275;SDS011;5183;51.190;6.820;2023-02-11T12:33:30;73.60;;;39.30;;
10275;SDS011;5183;51.190;6.820;2023-02-11T12:36:11;72.43;;;37.67;;
10275;SDS011;5183;51.190;6.820;2023-02-11T12:38:51;83.33;;;39.33;;
10275;SDS011;5183;51.190;6.820;2023-02-11T12:41:37;67.27;;;36.63;;
10275;SDS011;5183;51.190;6.820;2023-02-11T12:44:35;73.80;;;37.53;;
10275;SDS011;5183;51.190;6.820;2023-02-11T12:47:12;63.70;;;36.97;;
10275;SDS011;5183;51.190;6.820;2023-02-11T12:49:50;70.53;;;37.90;;
10275;SDS011;5183;51.190;6.820;2023-02-11T12:52:35;75.43;;;38.70;;
10275;SDS011;5183;51.190;6.820;2023-02-11T12:55:24;73.47;;;38.60;;
10275;SDS011;5183;51.190;6.820;2023-02-11T12:57:53;70.30;;;39.00;;
10275;SDS011;5183;51.190;6.820;2023-02-11T13:00:25;79.47;;;39.33;;
10275;SDS011;5183;51.190;6.820;2023-02-11T13:03:03;77.80;;;39.63;;
10275;SDS011;5183;51.190;6.820;2023-02-11T13:05:37;72.20;;;38.83;;
10275;SDS011;5183;51.190;6.820;2023-02-11T13:08:09;73.40;;;39.03;;
10275;SDS011;5183;51.190;6.820;2023-02-11T13:10:40;74.13;;;38.63;;
10275;SDS011;5183;51.190;6.820;2023-02-11T13:13:11;73.20;;;39.13;;
10275;SDS011;5183;51.190;6.820;2023-02-11T13:15:44;74.67;;;38.43;;
10275;SDS011;5183;51.190;6.820;2023-02-11T13:18:24;69.30;;;38.63;;
10275;SDS011;5183;51.190;6.820;2023-02-11T13:20:58;77.73;;;40.10;;
10275;SDS011;5183;51.190;6.820;2023-02-11T13:23:42;72.13;;;38.00;;
10275;SDS011;5183;51.190;6.820;2023-02-11T13:26:14;73.97;;;39.87;;
10275;SDS011;5183;51.190;6.820;2023-02-11T13:28:50;66.77;;;38.23;;
10275;SDS011;5183;51.190;6.820;2023-02-11T13:31:24;76.27;;;40.70;;
10275;SDS011;5183;51.190;6.820;2023-02-11T13:33:52;76.30;;;40.57;;
10275;SDS011;5183;51.190;6.820;2023-02-11T13:36:23;73.13;;;40.50;;
10275;SDS011;5183;51.190;6.820;2023-02-11T13:38:52;72.70;;;38.70;;
10275;SDS011;5183;51.190;6.820;2023-02-11T13:41:34;66.63;;;39.33;;
10275;SDS011;5183;51.190;6.820;2023-02-11T13:44:18;78.07;;;40.77;;
10275;SDS011;5183;51.190;6.820;2023-02-11T13:46:53;74.07;;;39.77;;
10275;SDS011;5183;51.190;6.820;2023-02-11T13:49:24;75.50;;;41.00;;
10275;SDS011;5183;51.190;6.820;2023-02-11T13:51:55;76.80;;;40.20;;
10275;SDS011;5183;51.190;6.820;2023-02-11T13:54:28;73.20;;;40.00;;
10275;SDS011;5183;51.190;6.820;2023-02-11T14:00:06;73.37;;;39.73;;
10275;SDS011;5183;51.190;6.820;2023-02-11T14:06:19;74.03;;;39.10;;
10275;SDS011;5183;51.190;6.820;2023-02-11T14:14:56;72.70;;;39.60;;
10275;SDS011;5183;51.190;6.820;2023-02-11T14:17:32;67.97;;;37.73;;
10275;SDS011;5183;51.190;6.820;2023-02-11T14:20:02;77.77;;;44.23;;
10275;SDS011;5183;51.190;6.820;2023-02-11T14:22:49;78.10;;;39.50;;
10275;SDS011;5183;51.190;6.820;2023-02-11T14:25:19;68.47;;;38.80;;
10275;SDS011;5183;51.190;6.820;2023-02-11T14:27:50;73.87;;;38.87;;
10275;SDS011;5183;51.190;6.820;2023-02-11T14:30:25;73.60;;;39.37;;
10275;SDS011;5183;51.190;6.820;2023-02-11T14:33:10;76.03;;;40.00;;
10275;SDS011;5183;51.190;6.820;2023-02-11T14:35:56;69.67;;;39.40;;
10275;SDS011;5183;51.190;6.820;2023-02-11T14:38:33;69.20;;;37.80;;
10275;SDS011;5183;51.190;6.820;2023-02-11T14:41:10;72.93;;;39.57;;
10275;SDS011;5183;51.190;6.820;2023-02-11T14:43:43;68.17;;;38.60;;
10275;SDS011;5183;51.190;6.820;2023-02-11T14:46:13;71.90;;;39.17;;
10275;SDS011;5183;51.190;6.820;2023-02-11T14:48:42;63.17;;;38.93;;
10275;SDS011;5183;51.190;6.820;2023-02-11T14:51:14;69.93;;;39.10;;
10275;SDS011;5183;51.190;6.820;2023-02-11T14:53:45;68.87;;;39.57;;
10275;SDS011;5183;51.190;6.820;2023-02-11T14:56:18;67.73;;;40.07;;
10275;SDS011;5183;51.190;6.820;2023-02-11T14:58:48;76.93;;;41.27;;
10275;SDS011;5183;51.190;6.820;2023-02-11T15:01:24;73.90;;;40.63;;
10275;SDS011;5183;51.190;6.820;2023-02-11T15:03:53;68.10;;;43.73;;
10275;SDS011;5183;51.190;6.820;2023-02-11T15:06:25;69.70;;;41.97;;
10275;SDS011;5183;51.190;6.820;2023-02-11T15:08:58;71.37;;;40.03;;
10275;SDS011;5183;51.190;6.820;2023-02-11T15:11:28;71.90;;;40.43;;
10275;SDS011;5183;51.190;6.820;2023-02-11T15:13:59;72.57;;;40.17;;
10275;SDS011;5183;51.190;6.820;2023-02-11T15:16:32;68.23;;;40.27;;
10275;SDS011;5183;51.190;6.820;2023-02-11T15:19:01;74.43;;;39.87;;